sensor_id;sensor_type;location;lat;lon;timestamp;P1;durP1;ratioP1;P2;durP2;ratioP2
1977;SDS011;989;53.016;8.346;2024-03-02T00:01:03;9.88;;;5.35;;
1977;SDS011;989;53.016;8.346;2024-03-02T00:03:28;13.07;;;6.87;;
1977;SDS011;989;53.016;8.346;2024-03-02T00:05:54;10.47;;;6.43;;
1977;SDS011;989;53.016;8.346;2024-03-02T00:08:23;12.00;;;7.00;;
1977;SDS011;989;53.016;8.346;2024-03-02T00:10:50;9.32;;;7.10;;
1977;SDS011;989;53.016;8.346;2024-03-02T00:13:15;10.00;;;6.27;;
1977;SDS011;989;53.016;8.346;2024-03-02T00:15:48;8.83;;;6.30;;
1977;SDS011;989;53.016;8.346;2024-03-02T00:18:35;8.48;;;5.65;;
1977;SDS011;989;53.016;8.346;2024-03-02T00:21:01;11.35;;;6.18;;
1977;SDS011;989;53.016;8.346;2024-03-02T00:23:29;9.73;;;6.72;;
1977;SDS011;989;53.016;8.346;2024-03-02T00:25:55;10.00;;;6.15;;
1977;SDS011;989;53.016;8.346;2024-03-02T00:30:55;6.00;;;4.78;;
1977;SDS011;989;53.016;8.346;2024-03-02T00:33:30;8.93;;;5.30;;
1977;SDS011;989;53.016;8.346;2024-03-02T00:36:02;23.45;;;6.75;;
1977;SDS011;989;53.016;8.346;2024-03-02T00:38:28;9.57;;;5.95;;
1977;SDS011;989;53.016;8.346;2024-03-02T00:40:55;10.98;;;6.60;;
1977;SDS011;989;53.016;8.346;2024-03-02T00:43:34;9.07;;;5.88;;
1977;SDS011;989;53.016;8.346;2024-03-02T00:46:05;9.68;;;6.45;;
1977;SDS011;989;53.016;8.346;2024-03-02T00:48:30;8.97;;;5.40;;
1977;SDS011;989;53.016;8.346;2024-03-02T00:51:02;7.95;;;5.30;;
1977;SDS011;989;53.016;8.346;2024-03-02T00:53:29;11.48;;;6.43;;
1977;SDS011;989;53.016;8.346;2024-03-02T00:55:55;7.05;;;5.43;;
1977;SDS011;989;53.016;8.346;2024-03-02T00:58:21;9.10;;;6.53;;
1977;SDS011;989;53.016;8.346;2024-03-02T01:00:46;10.53;;;6.33;;
1977;SDS011;989;53.016;8.346;2024-03-02T01:03:11;8.13;;;5.43;;
1977;SDS011;989;53.016;8.346;2024-03-02T01:05:40;10.53;;;6.37;;
1977;SDS011;989;53.016;8.346;2024-03-02T01:08:09;8.70;;;6.05;;
1977;SDS011;989;53.016;8.346;2024-03-02T01:10:35;9.23;;;6.40;;
1977;SDS011;989;53.016;8.346;2024-03-02T01:13:00;12.33;;;6.60;;
1977;SDS011;989;53.016;8.346;2024-03-02T01:15:26;9.30;;;5.53;;
1977;SDS011;989;53.016;8.346;2024-03-02T01:17:51;7.80;;;5.70;;
1977;SDS011;989;53.016;8.346;2024-03-02T01:20:17;8.37;;;6.50;;
1977;SDS011;989;53.016;8.346;2024-03-02T01:22:42;9.97;;;5.40;;
1977;SDS011;989;53.016;8.346;2024-03-02T01:25:08;7.47;;;5.77;;
1977;SDS011;989;53.016;8.346;2024-03-02T01:27:33;9.43;;;4.97;;
1977;SDS011;989;53.016;8.346;2024-03-02T01:29:59;7.00;;;4.80;;
1977;SDS011;989;53.016;8.346;2024-03-02T01:32:25;10.27;;;6.50;;
1977;SDS011;989;53.016;8.346;2024-03-02T01:34:50;8.93;;;6.40;;
1977;SDS011;989;53.016;8.346;2024-03-02T01:37:15;9.80;;;5.37;;
1977;SDS011;989;53.016;8.346;2024-03-02T01:39:41;8.07;;;5.10;;
1977;SDS011;989;53.016;8.346;2024-03-02T01:42:06;7.70;;;5.40;;
1977;SDS011;989;53.016;8.346;2024-03-02T01:44:32;8.13;;;5.83;;
1977;SDS011;989;53.016;8.346;2024-03-02T01:46:57;8.23;;;5.57;;
1977;SDS011;989;53.016;8.346;2024-03-02T01:49:23;5.50;;;4.37;;
1977;SDS011;989;53.016;8.346;2024-03-02T01:51:48;8.57;;;5.13;;
1977;SDS011;989;53.016;8.346;2024-03-02T01:54:13;5.90;;;4.80;;
1977;SDS011;989;53.016;8.346;2024-03-02T01:56:39;6.93;;;5.03;;
1977;SDS011;989;53.016;8.346;2024-03-02T01:59:04;8.40;;;5.53;;
1977;SDS011;989;53.016;8.346;2024-03-02T02:01:30;7.90;;;5.10;;
1977;SDS011;989;53.016;8.346;2024-03-02T02:03:56;7.57;;;4.80;;
1977;SDS011;989;53.016;8.346;2024-03-02T02:06:21;10.13;;;5.93;;
1977;SDS011;989;53.016;8.346;2024-03-02T02:08:47;6.60;;;4.93;;
1977;SDS011;989;53.016;8.346;2024-03-02T02:11:14;7.77;;;5.10;;
1977;SDS011;989;53.016;8.346;2024-03-02T02:13:40;6.88;;;5.57;;
1977;SDS011;989;53.016;8.346;2024-03-02T02:16:08;7.20;;;4.60;;
1977;SDS011;989;53.016;8.346;2024-03-02T02:18:34;8.02;;;4.90;;
1977;SDS011;989;53.016;8.346;2024-03-02T02:21:01;8.25;;;5.50;;
1977;SDS011;989;53.016;8.346;2024-03-02T02:23:26;9.80;;;4.83;;
1977;SDS011;989;53.016;8.346;2024-03-02T02:25:52;8.63;;;5.80;;
1977;SDS011;989;53.016;8.346;2024-03-02T02:28:17;8.20;;;4.40;;
1977;SDS011;989;53.016;8.346;2024-03-02T02:30:42;11.20;;;6.50;;
1977;SDS011;989;53.016;8.346;2024-03-02T02:33:08;6.20;;;4.43;;
1977;SDS011;989;53.016;8.346;2024-03-02T02:35:34;11.40;;;5.57;;
1977;SDS011;989;53.016;8.346;2024-03-02T02:37:59;7.37;;;4.87;;
1977;SDS011;989;53.016;8.346;2024-03-02T02:40:25;7.05;;;4.60;;
1977;SDS011;989;53.016;8.346;2024-03-02T02:42:51;7.00;;;4.53;;
1977;SDS011;989;53.016;8.346;2024-03-02T02:45:19;7.70;;;4.80;;
1977;SDS011;989;53.016;8.346;2024-03-02T02:47:44;10.60;;;4.93;;
1977;SDS011;989;53.016;8.346;2024-03-02T02:50:11;8.67;;;5.60;;
1977;SDS011;989;53.016;8.346;2024-03-02T02:52:37;10.38;;;5.30;;
1977;SDS011;989;53.016;8.346;2024-03-02T02:55:05;9.10;;;5.70;;
1977;SDS011;989;53.016;8.346;2024-03-02T02:57:32;7.60;;;5.60;;
1977;SDS011;989;53.016;8.346;2024-03-02T03:00:02;7.55;;;5.55;;
1977;SDS011;989;53.016;8.346;2024-03-02T03:02:30;12.68;;;5.63;;
1977;SDS011;989;53.016;8.346;2024-03-02T03:04:56;5.90;;;4.73;;
1977;SDS011;989;53.016;8.346;2024-03-02T03:07:22;9.57;;;5.32;;
1977;SDS011;989;53.016;8.346;2024-03-02T03:09:47;6.73;;;5.20;;
1977;SDS011;989;53.016;8.346;2024-03-02T03:12:13;9.47;;;5.67;;
1977;SDS011;989;53.016;8.346;2024-03-02T03:14:40;8.67;;;5.97;;
1977;SDS011;989;53.016;8.346;2024-03-02T03:17:06;7.95;;;5.60;;
1977;SDS011;989;53.016;8.346;2024-03-02T03:19:33;8.00;;;5.95;;
1977;SDS011;989;53.016;8.346;2024-03-02T03:21:58;9.40;;;5.33;;
1977;SDS011;989;53.016;8.346;2024-03-02T03:24:24;9.23;;;5.20;;
1977;SDS011;989;53.016;8.346;2024-03-02T03:26:49;7.80;;;4.80;;
1977;SDS011;989;53.016;8.346;2024-03-02T03:29:14;9.00;;;5.67;;
1977;SDS011;989;53.016;8.346;2024-03-02T03:31:40;7.63;;;5.83;;
1977;SDS011;989;53.016;8.346;2024-03-02T03:34:05;10.20;;;5.90;;
1977;SDS011;989;53.016;8.346;2024-03-02T03:36:30;7.27;;;4.93;;
1977;SDS011;989;53.016;8.346;2024-03-02T03:38:56;10.80;;;6.27;;
1977;SDS011;989;53.016;8.346;2024-03-02T03:41:22;6.97;;;4.88;;
1977;SDS011;989;53.016;8.346;2024-03-02T03:43:48;7.30;;;5.67;;
1977;SDS011;989;53.016;8.346;2024-03-02T03:46:13;11.30;;;6.70;;
1977;SDS011;989;53.016;8.346;2024-03-02T03:48:38;9.80;;;6.50;;
1977;SDS011;989;53.016;8.346;2024-03-02T03:51:04;13.80;;;7.50;;
1977;SDS011;989;53.016;8.346;2024-03-02T03:53:29;8.77;;;5.27;;
1977;SDS011;989;53.016;8.346;2024-03-02T03:55:55;8.63;;;5.60;;
1977;SDS011;989;53.016;8.346;2024-03-02T03:58:20;7.93;;;5.50;;
1977;SDS011;989;53.016;8.346;2024-03-02T04:00:46;7.70;;;5.13;;
1977;SDS011;989;53.016;8.346;2024-03-02T04:03:11;7.00;;;5.40;;
1977;SDS011;989;53.016;8.346;2024-03-02T04:05:36;8.43;;;5.80;;
1977;SDS011;989;53.016;8.346;2024-03-02T04:08:03;7.38;;;5.43;;
1977;SDS011;989;53.016;8.346;2024-03-02T04:10:29;9.03;;;6.50;;
1977;SDS011;989;53.016;8.346;2024-03-02T04:12:55;8.82;;;6.10;;
1977;SDS011;989;53.016;8.346;2024-03-02T04:15:20;10.10;;;6.83;;
1977;SDS011;989;53.016;8.346;2024-03-02T04:17:48;8.65;;;6.57;;
1977;SDS011;989;53.016;8.346;2024-03-02T04:20:13;11.40;;;7.10;;
1977;SDS011;989;53.016;8.346;2024-03-02T04:22:38;7.17;;;4.93;;
1977;SDS011;989;53.016;8.346;2024-03-02T04:25:04;8.80;;;6.13;;
1977;SDS011;989;53.016;8.346;2024-03-02T04:27:30;7.23;;;5.97;;
1977;SDS011;989;53.016;8.346;2024-03-02T04:29:55;9.60;;;5.80;;
1977;SDS011;989;53.016;8.346;2024-03-02T04:32:21;11.30;;;6.10;;
1977;SDS011;989;53.016;8.346;2024-03-02T04:34:46;7.33;;;5.77;;
1977;SDS011;989;53.016;8.346;2024-03-02T04:37:11;10.23;;;6.20;;
1977;SDS011;989;53.016;8.346;2024-03-02T04:39:40;7.28;;;5.50;;
1977;SDS011;989;53.016;8.346;2024-03-02T04:42:05;7.50;;;5.20;;
1977;SDS011;989;53.016;8.346;2024-03-02T04:44:31;9.10;;;6.50;;
1977;SDS011;989;53.016;8.346;2024-03-02T04:46:56;7.30;;;5.50;;
1977;SDS011;989;53.016;8.346;2024-03-02T04:49:21;5.30;;;4.30;;
1977;SDS011;989;53.016;8.346;2024-03-02T04:51:47;7.13;;;5.30;;
1977;SDS011;989;53.016;8.346;2024-03-02T04:54:12;10.70;;;6.77;;
1977;SDS011;989;53.016;8.346;2024-03-02T04:56:39;6.20;;;4.85;;
1977;SDS011;989;53.016;8.346;2024-03-02T04:59:14;7.10;;;5.40;;
1977;SDS011;989;53.016;8.346;2024-03-02T05:01:43;6.40;;;5.60;;
1977;SDS011;989;53.016;8.346;2024-03-02T05:04:09;9.43;;;5.50;;
1977;SDS011;989;53.016;8.346;2024-03-02T05:06:36;7.05;;;5.07;;
1977;SDS011;989;53.016;8.346;2024-03-02T05:09:08;7.80;;;6.22;;
1977;SDS011;989;53.016;8.346;2024-03-02T05:11:33;8.33;;;5.47;;
1977;SDS011;989;53.016;8.346;2024-03-02T05:14:02;9.25;;;5.32;;
1977;SDS011;989;53.016;8.346;2024-03-02T05:16:28;7.65;;;5.47;;
1977;SDS011;989;53.016;8.346;2024-03-02T05:18:53;6.17;;;4.83;;
1977;SDS011;989;53.016;8.346;2024-03-02T05:21:19;6.03;;;4.63;;
1977;SDS011;989;53.016;8.346;2024-03-02T05:23:44;5.70;;;4.70;;
1977;SDS011;989;53.016;8.346;2024-03-02T05:26:10;7.23;;;4.80;;
1977;SDS011;989;53.016;8.346;2024-03-02T05:28:37;8.85;;;5.38;;
1977;SDS011;989;53.016;8.346;2024-03-02T05:31:03;5.67;;;4.83;;
1977;SDS011;989;53.016;8.346;2024-03-02T05:33:29;9.30;;;6.03;;
1977;SDS011;989;53.016;8.346;2024-03-02T05:35:56;7.10;;;5.60;;
1977;SDS011;989;53.016;8.346;2024-03-02T05:38:21;8.33;;;5.77;;
1977;SDS011;989;53.016;8.346;2024-03-02T05:40:47;8.10;;;5.90;;
1977;SDS011;989;53.016;8.346;2024-03-02T05:43:13;7.10;;;6.00;;
1977;SDS011;989;53.016;8.346;2024-03-02T05:45:38;5.50;;;4.87;;
1977;SDS011;989;53.016;8.346;2024-03-02T05:48:04;7.35;;;5.40;;
1977;SDS011;989;53.016;8.346;2024-03-02T05:50:34;8.75;;;5.55;;
1977;SDS011;989;53.016;8.346;2024-03-02T05:52:59;12.80;;;6.17;;
1977;SDS011;989;53.016;8.346;2024-03-02T05:55:24;9.50;;;6.17;;
1977;SDS011;989;53.016;8.346;2024-03-02T05:57:50;6.87;;;4.87;;
1977;SDS011;989;53.016;8.346;2024-03-02T06:00:41;8.10;;;6.00;;
1977;SDS011;989;53.016;8.346;2024-03-02T06:03:07;5.63;;;4.70;;
1977;SDS011;989;53.016;8.346;2024-03-02T06:05:34;8.13;;;6.38;;
1977;SDS011;989;53.016;8.346;2024-03-02T06:07:59;6.90;;;5.03;;
1977;SDS011;989;53.016;8.346;2024-03-02T06:10:25;8.77;;;5.50;;
1977;SDS011;989;53.016;8.346;2024-03-02T06:12:50;8.47;;;6.00;;
1977;SDS011;989;53.016;8.346;2024-03-02T06:15:16;8.63;;;5.57;;
1977;SDS011;989;53.016;8.346;2024-03-02T06:17:42;7.20;;;5.67;;
1977;SDS011;989;53.016;8.346;2024-03-02T06:20:07;7.97;;;5.80;;
1977;SDS011;989;53.016;8.346;2024-03-02T06:22:33;8.23;;;5.93;;
1977;SDS011;989;53.016;8.346;2024-03-02T06:24:58;7.47;;;5.83;;
1977;SDS011;989;53.016;8.346;2024-03-02T06:27:24;8.30;;;5.97;;
1977;SDS011;989;53.016;8.346;2024-03-02T06:29:49;11.37;;;6.40;;
1977;SDS011;989;53.016;8.346;2024-03-02T06:32:16;8.10;;;5.82;;
1977;SDS011;989;53.016;8.346;2024-03-02T06:34:42;10.03;;;6.20;;
1977;SDS011;989;53.016;8.346;2024-03-02T06:37:07;8.60;;;6.30;;
1977;SDS011;989;53.016;8.346;2024-03-02T06:39:32;7.97;;;5.80;;
1977;SDS011;989;53.016;8.346;2024-03-02T06:41:59;7.25;;;5.68;;
1977;SDS011;989;53.016;8.346;2024-03-02T06:44:25;9.40;;;6.27;;
1977;SDS011;989;53.016;8.346;2024-03-02T06:46:50;7.57;;;6.73;;
1977;SDS011;989;53.016;8.346;2024-03-02T06:49:15;9.33;;;5.70;;
1977;SDS011;989;53.016;8.346;2024-03-02T06:51:43;7.68;;;5.93;;
1977;SDS011;989;53.016;8.346;2024-03-02T06:54:08;7.17;;;6.00;;
1977;SDS011;989;53.016;8.346;2024-03-02T06:56:34;7.60;;;6.43;;
1977;SDS011;989;53.016;8.346;2024-03-02T06:58:59;7.37;;;5.33;;
1977;SDS011;989;53.016;8.346;2024-03-02T07:01:24;9.07;;;6.33;;
1977;SDS011;989;53.016;8.346;2024-03-02T07:03:51;10.82;;;7.25;;
1977;SDS011;989;53.016;8.346;2024-03-02T07:06:16;14.27;;;6.90;;
1977;SDS011;989;53.016;8.346;2024-03-02T07:08:42;8.57;;;6.27;;
1977;SDS011;989;53.016;8.346;2024-03-02T07:11:07;8.83;;;6.33;;
1977;SDS011;989;53.016;8.346;2024-03-02T07:13:32;9.13;;;6.40;;
1977;SDS011;989;53.016;8.346;2024-03-02T07:15:58;10.37;;;6.77;;
1977;SDS011;989;53.016;8.346;2024-03-02T07:18:32;10.27;;;7.63;;
1977;SDS011;989;53.016;8.346;2024-03-02T07:21:09;13.55;;;7.68;;
1977;SDS011;989;53.016;8.346;2024-03-02T07:23:35;9.05;;;7.07;;
1977;SDS011;989;53.016;8.346;2024-03-02T07:26:01;10.90;;;7.70;;
1977;SDS011;989;53.016;8.346;2024-03-02T07:28:26;9.23;;;6.97;;
1977;SDS011;989;53.016;8.346;2024-03-02T07:31:01;10.03;;;7.83;;
1977;SDS011;989;53.016;8.346;2024-03-02T07:33:27;7.28;;;6.43;;
1977;SDS011;989;53.016;8.346;2024-03-02T07:35:56;12.03;;;8.00;;
1977;SDS011;989;53.016;8.346;2024-03-02T07:38:22;14.77;;;7.57;;
1977;SDS011;989;53.016;8.346;2024-03-02T07:40:48;10.30;;;7.20;;
1977;SDS011;989;53.016;8.346;2024-03-02T07:43:17;8.13;;;6.10;;
1977;SDS011;989;53.016;8.346;2024-03-02T07:45:42;11.57;;;7.57;;
1977;SDS011;989;53.016;8.346;2024-03-02T07:48:08;9.43;;;8.10;;
1977;SDS011;989;53.016;8.346;2024-03-02T07:50:33;11.13;;;7.73;;
1977;SDS011;989;53.016;8.346;2024-03-02T07:53:00;13.38;;;8.15;;
1977;SDS011;989;53.016;8.346;2024-03-02T07:55:26;11.65;;;7.68;;
1977;SDS011;989;53.016;8.346;2024-03-02T07:57:51;9.10;;;7.07;;
1977;SDS011;989;53.016;8.346;2024-03-02T08:00:17;9.57;;;7.30;;
1977;SDS011;989;53.016;8.346;2024-03-02T08:02:42;13.23;;;7.67;;
1977;SDS011;989;53.016;8.346;2024-03-02T08:05:07;12.07;;;7.83;;
1977;SDS011;989;53.016;8.346;2024-03-02T08:07:33;9.90;;;7.67;;
1977;SDS011;989;53.016;8.346;2024-03-02T08:09:59;10.50;;;7.60;;
1977;SDS011;989;53.016;8.346;2024-03-02T08:12:24;10.77;;;7.30;;
1977;SDS011;989;53.016;8.346;2024-03-02T08:14:49;9.03;;;6.90;;
1977;SDS011;989;53.016;8.346;2024-03-02T08:17:15;12.33;;;8.07;;
1977;SDS011;989;53.016;8.346;2024-03-02T08:19:41;12.43;;;9.57;;
1977;SDS011;989;53.016;8.346;2024-03-02T08:22:06;9.07;;;7.83;;
1977;SDS011;989;53.016;8.346;2024-03-02T08:24:32;13.60;;;8.60;;
1977;SDS011;989;53.016;8.346;2024-03-02T08:26:58;11.40;;;8.73;;
1977;SDS011;989;53.016;8.346;2024-03-02T08:29:24;15.37;;;8.03;;
1977;SDS011;989;53.016;8.346;2024-03-02T08:31:50;9.63;;;7.40;;
1977;SDS011;989;53.016;8.346;2024-03-02T08:34:15;12.17;;;8.70;;
1977;SDS011;989;53.016;8.346;2024-03-02T08:36:41;12.73;;;8.37;;
1977;SDS011;989;53.016;8.346;2024-03-02T08:39:07;12.63;;;8.23;;
1977;SDS011;989;53.016;8.346;2024-03-02T08:41:40;14.63;;;8.80;;
1977;SDS011;989;53.016;8.346;2024-03-02T08:44:11;16.50;;;9.73;;
1977;SDS011;989;53.016;8.346;2024-03-02T08:46:37;13.50;;;9.90;;
1977;SDS011;989;53.016;8.346;2024-03-02T08:49:03;12.07;;;8.87;;
1977;SDS011;989;53.016;8.346;2024-03-02T08:51:29;14.93;;;8.80;;
1977;SDS011;989;53.016;8.346;2024-03-02T08:53:54;11.70;;;8.00;;
1977;SDS011;989;53.016;8.346;2024-03-02T08:56:20;15.77;;;8.50;;
1977;SDS011;989;53.016;8.346;2024-03-02T08:58:46;15.03;;;9.33;;
1977;SDS011;989;53.016;8.346;2024-03-02T09:01:12;13.73;;;8.27;;
1977;SDS011;989;53.016;8.346;2024-03-02T09:03:37;12.93;;;9.10;;
1977;SDS011;989;53.016;8.346;2024-03-02T09:06:03;15.77;;;9.53;;
1977;SDS011;989;53.016;8.346;2024-03-02T09:08:28;11.50;;;9.03;;
1977;SDS011;989;53.016;8.346;2024-03-02T09:10:54;13.90;;;9.17;;
1977;SDS011;989;53.016;8.346;2024-03-02T09:13:20;17.43;;;8.43;;
1977;SDS011;989;53.016;8.346;2024-03-02T09:15:45;14.33;;;8.07;;
1977;SDS011;989;53.016;8.346;2024-03-02T09:18:10;16.90;;;10.30;;
1977;SDS011;989;53.016;8.346;2024-03-02T09:20:36;12.27;;;8.23;;
1977;SDS011;989;53.016;8.346;2024-03-02T09:23:01;13.83;;;8.80;;
1977;SDS011;989;53.016;8.346;2024-03-02T09:25:27;14.43;;;8.87;;
1977;SDS011;989;53.016;8.346;2024-03-02T09:27:52;12.63;;;8.67;;
1977;SDS011;989;53.016;8.346;2024-03-02T09:30:17;17.00;;;8.60;;
1977;SDS011;989;53.016;8.346;2024-03-02T09:32:43;12.67;;;8.63;;
1977;SDS011;989;53.016;8.346;2024-03-02T09:35:18;15.43;;;8.10;;
1977;SDS011;989;53.016;8.346;2024-03-02T09:37:44;11.40;;;8.10;;
1977;SDS011;989;53.016;8.346;2024-03-02T09:40:09;10.03;;;8.00;;
1977;SDS011;989;53.016;8.346;2024-03-02T09:42:35;15.37;;;9.20;;
1977;SDS011;989;53.016;8.346;2024-03-02T09:45:01;18.60;;;8.47;;
1977;SDS011;989;53.016;8.346;2024-03-02T09:47:27;14.50;;;7.87;;
1977;SDS011;989;53.016;8.346;2024-03-02T09:49:52;11.73;;;8.30;;
1977;SDS011;989;53.016;8.346;2024-03-02T09:52:17;8.93;;;8.03;;
1977;SDS011;989;53.016;8.346;2024-03-02T09:54:43;10.60;;;9.07;;
1977;SDS011;989;53.016;8.346;2024-03-02T09:57:08;9.33;;;7.13;;
1977;SDS011;989;53.016;8.346;2024-03-02T09:59:34;11.53;;;8.20;;
1977;SDS011;989;53.016;8.346;2024-03-02T10:02:03;13.60;;;8.73;;
1977;SDS011;989;53.016;8.346;2024-03-02T10:04:29;11.83;;;8.40;;
1977;SDS011;989;53.016;8.346;2024-03-02T10:07:15;14.23;;;8.77;;
1977;SDS011;989;53.016;8.346;2024-03-02T10:09:42;12.10;;;9.10;;
1977;SDS011;989;53.016;8.346;2024-03-02T10:12:08;15.03;;;10.40;;
1977;SDS011;989;53.016;8.346;2024-03-02T10:14:34;11.70;;;7.73;;
1977;SDS011;989;53.016;8.346;2024-03-02T10:17:03;13.53;;;9.30;;
1977;SDS011;989;53.016;8.346;2024-03-02T10:19:32;13.00;;;9.83;;
1977;SDS011;989;53.016;8.346;2024-03-02T10:21:59;12.23;;;8.87;;
1977;SDS011;989;53.016;8.346;2024-03-02T10:24:26;10.63;;;8.50;;
1977;SDS011;989;53.016;8.346;2024-03-02T10:26:52;11.00;;;8.97;;
1977;SDS011;989;53.016;8.346;2024-03-02T10:29:17;11.50;;;9.73;;
1977;SDS011;989;53.016;8.346;2024-03-02T10:31:44;14.00;;;9.80;;
1977;SDS011;989;53.016;8.346;2024-03-02T10:34:10;11.07;;;8.80;;
1977;SDS011;989;53.016;8.346;2024-03-02T10:36:37;8.47;;;7.60;;
1977;SDS011;989;53.016;8.346;2024-03-02T10:39:10;12.17;;;10.97;;
1977;SDS011;989;53.016;8.346;2024-03-02T10:41:39;11.63;;;10.53;;
1977;SDS011;989;53.016;8.346;2024-03-02T10:44:08;12.40;;;10.40;;
1977;SDS011;989;53.016;8.346;2024-03-02T11:53:30;11.00;;;9.90;;
1977;SDS011;989;53.016;8.346;2024-03-02T11:55:57;12.60;;;9.40;;
1977;SDS011;989;53.016;8.346;2024-03-02T11:58:23;18.03;;;9.17;;
1977;SDS011;989;53.016;8.346;2024-03-02T12:00:55;12.10;;;9.03;;
1977;SDS011;989;53.016;8.346;2024-03-02T12:03:22;8.60;;;7.80;;
1977;SDS011;989;53.016;8.346;2024-03-02T12:05:50;9.97;;;8.57;;
1977;SDS011;989;53.016;8.346;2024-03-02T12:08:17;12.03;;;9.07;;
1977;SDS011;989;53.016;8.346;2024-03-02T12:10:43;11.20;;;9.23;;
1977;SDS011;989;53.016;8.346;2024-03-02T12:13:09;16.97;;;8.47;;
1977;SDS011;989;53.016;8.346;2024-03-02T12:15:37;9.43;;;8.53;;
1977;SDS011;989;53.016;8.346;2024-03-02T12:18:04;9.17;;;8.33;;
1977;SDS011;989;53.016;8.346;2024-03-02T12:20:30;9.80;;;7.90;;
1977;SDS011;989;53.016;8.346;2024-03-02T12:23:00;9.13;;;8.23;;
1977;SDS011;989;53.016;8.346;2024-03-02T12:25:30;8.57;;;7.70;;
1977;SDS011;989;53.016;8.346;2024-03-02T12:27:57;7.80;;;7.00;;
1977;SDS011;989;53.016;8.346;2024-03-02T12:30:26;9.30;;;8.27;;
1977;SDS011;989;53.016;8.346;2024-03-02T12:32:52;8.80;;;7.90;;
1977;SDS011;989;53.016;8.346;2024-03-02T12:35:18;10.43;;;7.97;;
1977;SDS011;989;53.016;8.346;2024-03-02T12:37:51;7.40;;;6.80;;
1977;SDS011;989;53.016;8.346;2024-03-02T12:40:18;8.83;;;7.53;;
1977;SDS011;989;53.016;8.346;2024-03-02T12:42:45;7.53;;;6.83;;
1977;SDS011;989;53.016;8.346;2024-03-02T12:45:11;8.53;;;6.43;;
1977;SDS011;989;53.016;8.346;2024-03-02T12:47:36;8.87;;;7.73;;
1977;SDS011;989;53.016;8.346;2024-03-02T12:50:03;9.10;;;7.30;;
1977;SDS011;989;53.016;8.346;2024-03-02T12:52:29;8.30;;;7.50;;
1977;SDS011;989;53.016;8.346;2024-03-02T12:54:55;10.23;;;7.83;;
1977;SDS011;989;53.016;8.346;2024-03-02T12:57:26;10.40;;;7.93;;
1977;SDS011;989;53.016;8.346;2024-03-02T13:00:01;13.07;;;7.70;;
1977;SDS011;989;53.016;8.346;2024-03-02T13:02:39;8.27;;;7.30;;
1977;SDS011;989;53.016;8.346;2024-03-02T13:05:06;8.63;;;7.30;;
1977;SDS011;989;53.016;8.346;2024-03-02T13:07:31;8.80;;;8.00;;
1977;SDS011;989;53.016;8.346;2024-03-02T13:09:58;8.37;;;7.60;;
1977;SDS011;989;53.016;8.346;2024-03-02T13:12:24;9.60;;;7.97;;
1977;SDS011;989;53.016;8.346;2024-03-02T13:14:53;7.73;;;7.03;;
1977;SDS011;989;53.016;8.346;2024-03-02T13:17:19;9.33;;;7.30;;
1977;SDS011;989;53.016;8.346;2024-03-02T13:19:51;9.00;;;7.97;;
1977;SDS011;989;53.016;8.346;2024-03-02T13:22:20;8.83;;;8.00;;
1977;SDS011;989;53.016;8.346;2024-03-02T13:24:46;8.97;;;6.80;;
1977;SDS011;989;53.016;8.346;2024-03-02T13:27:12;13.30;;;6.50;;
1977;SDS011;989;53.016;8.346;2024-03-02T13:29:37;9.80;;;6.10;;
1977;SDS011;989;53.016;8.346;2024-03-02T13:32:03;7.30;;;6.50;;
1977;SDS011;989;53.016;8.346;2024-03-02T13:34:28;9.40;;;7.37;;
1977;SDS011;989;53.016;8.346;2024-03-02T13:36:54;6.87;;;6.20;;
1977;SDS011;989;53.016;8.346;2024-03-02T13:39:19;6.40;;;5.80;;
1977;SDS011;989;53.016;8.346;2024-03-02T13:41:45;8.30;;;7.47;;
1977;SDS011;989;53.016;8.346;2024-03-02T13:44:17;9.40;;;7.43;;
1977;SDS011;989;53.016;8.346;2024-03-02T13:46:46;7.10;;;6.23;;
1977;SDS011;989;53.016;8.346;2024-03-02T13:49:12;9.70;;;7.20;;
1977;SDS011;989;53.016;8.346;2024-03-02T13:51:37;9.37;;;7.57;;
1977;SDS011;989;53.016;8.346;2024-03-02T13:54:02;9.03;;;7.30;;
1977;SDS011;989;53.016;8.346;2024-03-02T13:56:28;8.13;;;7.17;;
1977;SDS011;989;53.016;8.346;2024-03-02T13:58:54;9.03;;;8.17;;
1977;SDS011;989;53.016;8.346;2024-03-02T14:01:19;10.03;;;8.17;;
1977;SDS011;989;53.016;8.346;2024-03-02T14:03:45;12.33;;;9.60;;
1977;SDS011;989;53.016;8.346;2024-03-02T14:06:11;12.23;;;9.87;;
1977;SDS011;989;53.016;8.346;2024-03-02T14:08:36;10.70;;;9.60;;
1977;SDS011;989;53.016;8.346;2024-03-02T14:11:02;10.20;;;9.20;;
1977;SDS011;989;53.016;8.346;2024-03-02T14:13:28;10.93;;;8.70;;
1977;SDS011;989;53.016;8.346;2024-03-02T14:15:54;8.83;;;7.40;;
1977;SDS011;989;53.016;8.346;2024-03-02T14:18:19;10.13;;;9.10;;
1977;SDS011;989;53.016;8.346;2024-03-02T14:20:46;10.40;;;9.30;;
1977;SDS011;989;53.016;8.346;2024-03-02T14:23:17;9.57;;;7.93;;
1977;SDS011;989;53.016;8.346;2024-03-02T14:25:42;10.00;;;8.40;;
1977;SDS011;989;53.016;8.346;2024-03-02T14:28:07;9.17;;;7.70;;
1977;SDS011;989;53.016;8.346;2024-03-02T14:30:33;10.53;;;8.50;;
1977;SDS011;989;53.016;8.346;2024-03-02T14:32:59;10.13;;;8.80;;
1977;SDS011;989;53.016;8.346;2024-03-02T14:35:25;9.50;;;7.77;;
1977;SDS011;989;53.016;8.346;2024-03-02T14:37:50;9.23;;;8.37;;
1977;SDS011;989;53.016;8.346;2024-03-02T14:40:15;12.03;;;8.57;;
1977;SDS011;989;53.016;8.346;2024-03-02T14:42:41;9.63;;;8.63;;
1977;SDS011;989;53.016;8.346;2024-03-02T14:45:09;13.27;;;8.73;;
1977;SDS011;989;53.016;8.346;2024-03-02T14:47:34;8.73;;;7.83;;
1977;SDS011;989;53.016;8.346;2024-03-02T14:50:00;8.67;;;6.90;;
1977;SDS011;989;53.016;8.346;2024-03-02T14:52:26;9.30;;;7.90;;
1977;SDS011;989;53.016;8.346;2024-03-02T14:54:51;8.27;;;7.13;;
1977;SDS011;989;53.016;8.346;2024-03-02T14:57:17;8.23;;;7.30;;
1977;SDS011;989;53.016;8.346;2024-03-02T14:59:42;8.63;;;7.77;;
1977;SDS011;989;53.016;8.346;2024-03-02T15:02:08;8.20;;;7.40;;
1977;SDS011;989;53.016;8.346;2024-03-02T15:04:34;7.83;;;7.03;;
1977;SDS011;989;53.016;8.346;2024-03-02T15:06:59;7.30;;;6.63;;
1977;SDS011;989;53.016;8.346;2024-03-02T15:09:25;8.90;;;7.60;;
1977;SDS011;989;53.016;8.346;2024-03-02T15:11:50;8.80;;;7.50;;
1977;SDS011;989;53.016;8.346;2024-03-02T15:14:16;8.00;;;7.10;;
1977;SDS011;989;53.016;8.346;2024-03-02T15:16:41;9.60;;;7.43;;
1977;SDS011;989;53.016;8.346;2024-03-02T15:19:07;10.17;;;7.20;;
1977;SDS011;989;53.016;8.346;2024-03-02T15:21:32;7.57;;;6.77;;
1977;SDS011;989;53.016;8.346;2024-03-02T15:23:58;7.90;;;6.47;;
1977;SDS011;989;53.016;8.346;2024-03-02T15:26:23;7.13;;;6.47;;
1977;SDS011;989;53.016;8.346;2024-03-02T15:28:49;7.80;;;7.00;;
1977;SDS011;989;53.016;8.346;2024-03-02T15:31:14;9.17;;;6.80;;
1977;SDS011;989;53.016;8.346;2024-03-02T15:33:39;8.37;;;6.73;;
1977;SDS011;989;53.016;8.346;2024-03-02T15:36:05;11.90;;;7.10;;
1977;SDS011;989;53.016;8.346;2024-03-02T15:38:30;12.20;;;6.60;;
1977;SDS011;989;53.016;8.346;2024-03-02T15:40:57;12.83;;;6.93;;
1977;SDS011;989;53.016;8.346;2024-03-02T15:43:22;8.57;;;7.20;;
1977;SDS011;989;53.016;8.346;2024-03-02T15:45:49;9.77;;;7.70;;
1977;SDS011;989;53.016;8.346;2024-03-02T15:48:14;10.00;;;7.50;;
1977;SDS011;989;53.016;8.346;2024-03-02T15:50:40;8.63;;;7.73;;
1977;SDS011;989;53.016;8.346;2024-03-02T15:53:05;10.20;;;8.37;;
1977;SDS011;989;53.016;8.346;2024-03-02T15:55:31;8.10;;;7.20;;
1977;SDS011;989;53.016;8.346;2024-03-02T15:57:59;9.13;;;7.60;;
1977;SDS011;989;53.016;8.346;2024-03-02T16:00:24;11.30;;;7.90;;
1977;SDS011;989;53.016;8.346;2024-03-02T16:02:49;9.13;;;7.90;;
1977;SDS011;989;53.016;8.346;2024-03-02T16:05:15;8.47;;;7.63;;
1977;SDS011;989;53.016;8.346;2024-03-02T16:07:42;7.73;;;6.63;;
1977;SDS011;989;53.016;8.346;2024-03-02T16:10:07;10.93;;;7.63;;
1977;SDS011;989;53.016;8.346;2024-03-02T16:12:33;10.00;;;6.40;;
1977;SDS011;989;53.016;8.346;2024-03-02T16:14:59;10.10;;;7.13;;
1977;SDS011;989;53.016;8.346;2024-03-02T16:17:24;7.47;;;6.23;;
1977;SDS011;989;53.016;8.346;2024-03-02T16:19:49;8.73;;;5.67;;
1977;SDS011;989;53.016;8.346;2024-03-02T16:22:15;7.80;;;6.03;;
1977;SDS011;989;53.016;8.346;2024-03-02T16:24:40;7.73;;;4.87;;
1977;SDS011;989;53.016;8.346;2024-03-02T16:27:05;7.57;;;6.30;;
1977;SDS011;989;53.016;8.346;2024-03-02T16:29:31;9.67;;;5.90;;